Floreffe, Belgium
Current Conditions -  °F | °C
As of 8:50 PM on Sunday 21 Dec 2014 (Local Time) from EBCI Reporting Station
Broken Clouds Broken Clouds  
Wind Chill: 34°   Ceiling: 900
Heat Index: 43°   Visibility: 6mi
Dew Point: 39°   Wind: 21mph
Humidity: 87%   Direction: 220°SW
Pressure: 30.33"   Gusts: NA
Location:  50.43°N, 4.76°E
Report Text: EBCI 211950Z 22018KT 9999 BKN009 BKN020 06/04 Q1027 TEMPO 23020G32KT 4500 -DZRA
Loading
Personal Weather Stations






























Interactive Weather Map New forecast layout! Learn more

10-Day Weather Forecast

Advertisements
Track Severe Weather on mobile